Aérodrome :
LOGIN :

S'inscrire | Disclaimer

   EN    FR    IT 

 










Légende :    VFR   VFR Marginal   IFR   IFR Intensif   IFR Très Intensif
Visi : 
Plafond : 
>= 8 km
>= 3000ft
5 à 8 km
1000 à 3000 ft
1500m à 5 km
500 à 1000 ft
800 à 1500m
200 à 500 ft
< 800m
< 200 ft
Symboles :   Orages  Brouillard  Fortes neiges  Fortes précipitations  Vent > 20 kt
SIGMETs :   Divers  Orages  Givrage  Turbulence  Onde Orograph.  Cendres Volcan.







- Altitude de l'aérodrome : 62 ft
- Code IATA : TAN


GMTT - Tanger Ibn Batouta

DERNIER METAR :
  • 131630Z 09010KT 060V120 8000 SCT016 BKN200 19/12 Q1018 NOSIG

METARs EXPIRÉS :
  • 131600Z 08013KT 8000 SCT016 BKN200 19/12 Q1018 NOSIG
  • 131530Z 09015KT 8000 SCT016 BKN200 19/12 Q1017 NOSIG
  • 131500Z 09015KT 8000 SCT016 BKN200 19/12 Q1017 NOSIG
  • 131430Z 09012KT 8000 SCT016 BKN200 19/12 Q1017 NOSIG
  • 131400Z 10016KT 8000 SCT016 BKN200 20/12 Q1017 NOSIG

TAF TAF GMTT
Valide du 13 à 12h jusqu'au 14 à 18h UTC


131100Z 1312/1418 09014KT 8000 FEW016 BKN100
TEMPO 1315/1324 09016G26KT
PROB30
TEMPO 1318/1324 3000 RA
Pas de NOTAMs connus pour ce terrain.
1 SIGMET publié pour la FIR Casablanca (GMMM) :
 
Orages noyés dans la masse
GMMM SIGMET 01 VALID 131700/132100 GMMC
GMMM CASABLANCA FIR EMBD TS FCST E OF LINE N3357 W00258 - N3135 W007 36 -N3040 W00532 TOP FL320 MOV NW NC=



MET'MAP, la Météo Aéronautique d'un coup d'oeil ! - Copyright ORBIFLY Décembre 2007 - Disclaimer

ORBIFLY MET'MAP TEAM :

Programmation & Développement : Alexandra Zaïnal
Conception & Développement : Baudouin d'Aumeries
Co-Programmation & Développement : Marc-Olivier Méhu
Soutien technique & logistique : Manuel Goepfert

Contact : metmap@orbifly.com




SOURCES & CREDITS :

   NOAA